Date,TemperatureHighF,TemperatureAvgF,TemperatureLowF,DewpointHighF,DewpointAvgF,DewpointLowF,HumidityHigh,HumidityAvg,HumidityLow,PressureMaxIn,PressureMinIn,WindSpeedMaxMPH,WindSpeedAvgMPH,GustSpeedMaxMPH,PrecipitationSumIn
2014-1-4,21.1,13.8,5.2,12.7,2.1,-5.7,70,59,52,30.19,29.83,13,9,14,0.00
2014-1-5,4.8,-5.7,-13.8,-6.4,-17.8,-24.4,62,55,46,30.38,30.20,14,9,15,0.00
2014-1-6,-12.0,-17.0,-22.0,-24.7,-28.8,-33.7,60,54,49,30.32,30.24,14,10,19,0.00
2014-1-7,2.0,-7.4,-17.5,-12.8,-18.8,-26.8,66,57,46,30.31,30.20,8,4,13,0.00
2014-1-8,2.4,-4.9,-12.8,-12.2,-14.8,-20.1,72,62,48,30.55,30.32,7,2,9,0.00
2014-1-9,18.1,1.1,-17.2,14.1,-8.5,-24.9,84,64,46,30.53,30.05,8,3,12,0.00
2014-1-10,29.5,24.8,18.3,27.8,23.0,15.1,96,93,87,30.03,29.48,9,4,12,0.00
2014-1-11,31.6,28.8,24.8,27.9,25.8,21.5,96,88,79,29.68,29.45,12,6,14,0.00
2014-1-12,42.6,34.0,25.0,30.9,26.6,23.0,94,75,53,29.67,29.38,9,3,9,0.00
2014-1-13,36.8,31.1,24.7,30.6,22.6,16.1,83,71,55,29.65,29.46,14,6,14,0.00
2014-1-14,26.3,20.3,9.9,25.0,16.2,0.8,96,84,66,30.06,29.48,15,8,20,0.00
2014-1-15,20.8,7.5,1.1,15.3,-0.1,-5.0,80,71,61,30.13,29.50,11,4,13,0.00
2014-1-16,32.2,20.5,9.2,30.4,12.0,-2.4,93,70,53,29.78,29.36,19,9,24,0.00
2014-1-17,14.0,9.7,1.5,4.7,0.5,-5.2,80,66,56,30.01,29.78,12,7,17,0.00
2014-1-18,18.3,11.5,1.7,12.3,5.2,-4.7,83,75,68,29.94,29.72,8,4,10,0.00
2014-1-19,37.2,28.2,17.2,26.0,20.8,11.5,84,74,61,29.75,29.43,11,5,13,0.00
2014-1-20,29.7,15.4,-0.8,21.8,5.6,-18.0,89,65,43,30.39,29.67,15,8,19,0.00
2014-1-21,1.3,-3.3,-9.6,-5.3,-16.7,-20.9,73,52,43,30.46,30.10,8,4,10,0.00
2014-1-22,5.0,1.8,-3.3,-0.6,-8.3,-16.1,78,63,48,30.42,29.96,17,8,24,0.00
2014-1-23,-3.5,-7.7,-11.7,-15.3,-18.6,-20.8,69,58,47,30.73,30.37,12,7,16,0.00
2014-1-24,30.9,18.5,-8.6,27.8,9.4,-15.8,94,68,48,30.35,29.44,15,8,20,0.00
2014-1-25,27.5,8.1,3.2,11.3,-10.0,-15.0,67,43,33,29.83,29.48,20,12,22,0.00
2014-1-26,16.7,6.3,-1.2,7.5,-1.8,-14.6,82,70,49,29.98,29.38,23,11,32,0.00
2014-1-27,-1.6,-9.7,-14.3,-13.4,-23.0,-28.4,61,51,42,30.44,30.00,17,10,21,0.00
2014-1-28,-1.0,-8.0,-15.6,-13.1,-18.7,-23.6,67,59,47,30.43,30.16,12,6,18,0.00
2014-1-29,31.3,10.9,-7.5,13.0,-4.2,-15.9,69,51,35,30.15,29.64,8,4,13,0.00
2014-1-30,30.9,21.7,3.7,25.8,12.0,-7.8,95,68,47,30.00,29.49,16,6,19,0.00
2014-1-31,5.8,-1.2,-8.6,-8.6,-12.2,-16.6,70,59,48,30.22,30.01,13,4,13,0.00